createdAt,value
2022-09-01T00:04:27.010Z,1.10
2022-09-01T00:09:24.119Z,0.88
2022-09-01T00:14:29.857Z,0.82
2022-09-01T00:19:27.352Z,0.82
2022-09-01T00:24:26.186Z,0.70
2022-09-01T00:29:23.553Z,0.90
2022-09-01T00:34:21.014Z,0.73
2022-09-01T00:39:17.422Z,1.30
2022-09-01T00:44:18.481Z,0.85
2022-09-01T00:49:19.322Z,0.85
2022-09-01T00:54:21.363Z,0.85
2022-09-01T00:59:21.110Z,0.93
2022-09-01T01:04:17.611Z,0.88
2022-09-01T01:09:13.990Z,0.80
2022-09-01T01:14:12.162Z,0.85
2022-09-01T01:24:34.638Z,1.55
2022-09-01T01:29:34.025Z,0.70
2022-09-01T01:34:30.874Z,1.05
2022-09-01T01:39:27.513Z,0.70
2022-09-01T01:44:27.870Z,0.73
2022-09-01T01:49:27.534Z,0.90
2022-09-01T01:54:25.878Z,1.00
2022-09-01T01:59:24.756Z,0.55
2022-09-01T02:04:21.612Z,0.70
2022-09-01T02:09:20.179Z,0.55
2022-09-01T02:14:21.702Z,0.75
2022-09-01T02:19:21.040Z,0.77
2022-09-01T02:24:17.409Z,0.60
2022-09-01T02:29:26.499Z,0.60
2022-09-01T02:34:24.414Z,1.00
2022-09-01T02:39:29.546Z,0.70
2022-09-01T02:44:27.796Z,0.80
2022-09-01T02:54:24.560Z,0.85
2022-09-01T02:59:24.150Z,0.90
2022-09-01T03:04:22.387Z,0.55
2022-09-01T03:14:16.982Z,0.70
2022-09-01T03:19:15.089Z,0.80
2022-09-01T03:24:15.087Z,0.52
2022-09-01T03:29:12.025Z,0.82
2022-09-01T03:34:10.898Z,1.08
2022-09-01T03:39:13.388Z,1.20
2022-09-01T03:44:16.203Z,0.60
2022-09-01T03:49:15.389Z,0.80
2022-09-01T03:54:12.606Z,1.00
2022-09-01T03:59:16.968Z,0.80
2022-09-01T04:04:14.889Z,0.80
2022-09-01T04:09:11.848Z,0.90
2022-09-01T04:14:10.738Z,1.05
2022-09-01T04:19:19.829Z,0.90
2022-09-01T04:24:18.899Z,1.50
2022-09-01T04:29:24.177Z,1.77
2022-09-01T04:34:22.504Z,1.67
2022-09-01T04:44:19.179Z,1.17
2022-09-01T04:49:22.208Z,1.42
2022-09-01T04:54:19.656Z,1.15
2022-09-01T04:59:17.270Z,0.80
2022-09-01T05:04:22.740Z,1.40
2022-09-01T05:09:20.346Z,1.13
2022-09-01T05:14:19.865Z,1.30
2022-09-01T05:19:17.511Z,1.35
2022-09-01T05:24:17.597Z,1.13
2022-09-01T05:29:17.638Z,1.08
2022-09-01T05:34:20.158Z,1.17
2022-09-01T05:39:16.651Z,1.02
2022-09-01T05:44:14.158Z,1.17
2022-09-01T05:49:13.893Z,1.10
2022-09-01T05:54:12.040Z,1.25
2022-09-01T05:59:26.560Z,0.82
2022-09-01T06:04:25.601Z,0.90
2022-09-01T06:09:23.451Z,1.08
2022-09-01T06:14:20.472Z,0.93
2022-09-01T06:19:17.010Z,1.27
2022-09-01T06:24:13.762Z,1.38
2022-09-01T06:29:15.227Z,2.22
2022-09-01T06:34:17.694Z,1.02
2022-09-01T06:39:19.809Z,0.80
2022-09-01T06:44:22.224Z,0.95
2022-09-01T06:49:32.506Z,1.20
2022-09-01T06:54:34.237Z,0.90
2022-09-01T06:59:34.756Z,0.98
2022-09-01T07:04:31.484Z,0.95
2022-09-01T07:09:38.833Z,0.60
2022-09-01T07:25:21.449Z,0.80
2022-09-01T07:30:19.604Z,0.98
2022-09-01T07:35:22.416Z,0.70
2022-09-01T07:45:47.693Z,0.80
2022-09-01T07:56:09.919Z,0.80
2022-09-01T08:01:08.858Z,0.70
2022-09-01T08:06:08.331Z,0.93
2022-09-01T08:11:05.255Z,0.65
2022-09-01T08:16:08.341Z,0.80
2022-09-01T08:21:11.540Z,0.70
2022-09-01T08:26:10.140Z,0.75
2022-09-01T08:31:11.996Z,0.52
2022-09-01T08:36:11.180Z,0.65
2022-09-01T08:41:17.251Z,0.60
2022-09-01T08:46:22.751Z,0.70
2022-09-01T08:51:30.503Z,0.60
2022-09-01T08:56:27.834Z,1.00
2022-09-01T09:01:41.769Z,0.63
2022-09-01T09:07:36.179Z,0.63
2022-09-01T09:13:10.564Z,0.68
2022-09-01T09:18:38.927Z,0.63
2022-09-01T09:23:40.866Z,0.68
2022-09-01T09:28:38.588Z,0.90
2022-09-01T09:33:51.803Z,0.52
2022-09-01T09:39:04.977Z,0.90
2022-09-01T09:44:17.620Z,0.70
2022-09-01T09:49:35.859Z,0.73
2022-09-01T09:54:35.767Z,0.50
2022-09-01T09:59:57.867Z,0.90
2022-09-01T10:04:56.135Z,0.73
2022-09-01T10:09:55.672Z,0.57
2022-09-01T10:14:56.327Z,0.70
2022-09-01T10:19:57.137Z,0.80
2022-09-01T10:24:53.570Z,0.77
2022-09-01T10:30:13.870Z,0.50
2022-09-01T10:35:23.929Z,0.55
2022-09-01T10:40:30.281Z,0.70
2022-09-01T10:50:35.489Z,0.85
2022-09-01T10:55:37.334Z,0.40
2022-09-01T11:00:37.007Z,0.70
2022-09-01T11:06:11.307Z,0.60
2022-09-01T11:11:36.381Z,0.60
2022-09-01T11:16:47.292Z,0.40
2022-09-01T11:21:46.024Z,0.73
2022-09-01T11:26:48.614Z,0.60
2022-09-01T11:31:45.296Z,0.75
2022-09-01T11:36:48.269Z,0.73
2022-09-01T11:41:55.851Z,0.63
2022-09-01T11:47:02.082Z,0.80
2022-09-01T11:52:00.535Z,0.50
2022-09-01T11:56:57.001Z,0.60
2022-09-01T12:01:58.123Z,0.63
2022-09-01T12:07:08.021Z,0.77
2022-09-01T12:12:25.291Z,0.50
2022-09-01T12:17:21.685Z,0.80
2022-09-01T12:22:21.360Z,0.60
2022-09-01T12:27:18.164Z,0.60
2022-09-01T12:32:15.830Z,0.50
2022-09-01T12:37:12.297Z,0.70
2022-09-01T12:42:10.720Z,0.55
2022-09-01T12:47:16.258Z,0.73
2022-09-01T12:52:27.430Z,0.90
2022-09-01T12:57:35.942Z,0.68
2022-09-01T13:02:42.014Z,0.63
2022-09-01T13:07:38.510Z,0.43
2022-09-01T13:12:41.236Z,0.70
2022-09-01T13:17:38.361Z,0.50
2022-09-01T13:22:35.290Z,0.47
2022-09-01T13:27:31.827Z,0.65
2022-09-01T13:32:28.225Z,0.70
2022-09-01T13:37:25.720Z,0.60
2022-09-01T13:42:22.840Z,0.60
2022-09-01T13:47:29.202Z,0.40
2022-09-01T13:52:26.370Z,0.60
2022-09-01T13:57:22.725Z,0.40
2022-09-01T14:02:19.439Z,0.60
2022-09-01T14:07:18.773Z,0.30
2022-09-01T14:12:15.244Z,0.50
2022-09-01T14:17:12.043Z,0.47
2022-09-01T14:22:08.492Z,0.40
2022-09-01T14:27:05.055Z,0.50
2022-09-01T14:32:02.160Z,0.60
2022-09-01T14:36:59.501Z,0.70
2022-09-01T14:41:55.886Z,0.50
2022-09-01T14:46:54.605Z,0.50
2022-09-01T15:02:25.234Z,0.50
2022-09-01T15:07:21.668Z,0.57
2022-09-01T15:12:19.302Z,0.60
2022-09-01T15:17:15.676Z,0.50
2022-09-01T15:22:14.329Z,0.40
2022-09-01T15:27:11.519Z,0.73
2022-09-01T15:37:11.660Z,0.60
2022-09-01T15:42:08.388Z,0.60
2022-09-01T15:47:05.007Z,0.50
2022-09-01T15:52:01.604Z,1.10
2022-09-01T15:56:58.114Z,0.93
2022-09-01T16:01:54.792Z,0.30
2022-09-01T16:06:52.565Z,0.57
2022-09-01T16:11:49.304Z,0.60
2022-09-01T16:17:08.821Z,0.65
2022-09-01T16:22:29.018Z,0.60
2022-09-01T16:27:33.211Z,0.50
2022-09-01T16:32:31.463Z,0.40
2022-09-01T16:37:37.056Z,0.50
2022-09-01T16:42:49.147Z,0.60
2022-09-01T16:48:08.015Z,0.45
2022-09-01T16:53:40.029Z,0.45
2022-09-01T16:59:11.891Z,0.32
2022-09-01T17:04:28.630Z,0.40
2022-09-01T17:09:32.562Z,0.38
2022-09-01T17:14:39.638Z,0.47
2022-09-01T17:19:39.173Z,0.68
2022-09-01T17:25:07.701Z,0.40
2022-09-01T17:30:07.113Z,0.40
2022-09-01T17:35:23.100Z,0.40
2022-09-01T17:40:23.879Z,0.40
2022-09-01T17:45:33.792Z,0.70
2022-09-01T17:51:02.037Z,0.50
2022-09-01T17:56:18.889Z,0.68
2022-09-01T18:01:21.333Z,0.60
2022-09-01T18:06:34.612Z,1.00
2022-09-01T18:11:43.214Z,0.50
2022-09-01T18:17:01.992Z,0.50
2022-09-01T18:22:03.481Z,0.60
2022-09-01T18:27:01.593Z,0.55
2022-09-01T18:32:11.152Z,0.40
2022-09-01T18:37:22.435Z,0.50
2022-09-01T18:42:37.889Z,0.50
2022-09-01T18:48:01.946Z,0.88
2022-09-01T18:53:14.920Z,0.40
2022-09-01T18:58:31.104Z,0.50
2022-09-01T19:03:38.609Z,0.45
2022-09-01T19:08:46.957Z,0.60
2022-09-01T19:13:54.799Z,0.47
2022-09-01T19:19:22.287Z,0.50
2022-09-01T19:24:26.712Z,0.52
2022-09-01T19:29:37.632Z,0.40
2022-09-01T19:34:42.916Z,0.50
2022-09-01T19:39:43.762Z,0.60
2022-09-01T19:44:47.050Z,0.50
2022-09-01T19:50:12.332Z,0.60
2022-09-01T19:55:26.058Z,0.55
2022-09-01T20:00:42.020Z,0.50
2022-09-01T20:05:50.403Z,0.50
2022-09-01T20:11:05.288Z,0.40
2022-09-01T20:16:24.649Z,0.40
2022-09-01T20:21:21.913Z,0.40
2022-09-01T20:26:26.911Z,0.60
2022-09-01T20:31:36.901Z,0.40
2022-09-01T20:36:50.594Z,0.60
2022-09-01T20:42:19.853Z,0.80
2022-09-01T20:47:16.755Z,0.80
2022-09-01T20:52:26.845Z,0.40
2022-09-01T20:57:50.262Z,0.57
2022-09-01T21:02:52.952Z,0.30
2022-09-01T21:08:24.883Z,0.57
2022-09-01T21:13:49.522Z,0.40
2022-09-01T21:19:06.253Z,0.40
2022-09-01T21:24:04.183Z,0.35
2022-09-01T21:34:02.662Z,0.60
2022-09-01T21:38:59.027Z,0.30
2022-09-01T21:43:55.408Z,0.40
2022-09-01T21:48:51.863Z,0.50
2022-09-01T21:53:48.247Z,0.43
2022-09-01T21:58:44.686Z,0.40
2022-09-01T22:03:46.441Z,0.55
2022-09-01T22:08:42.801Z,0.82
2022-09-01T22:13:39.220Z,0.32
2022-09-01T22:18:35.626Z,0.45
2022-09-01T22:23:32.164Z,0.40
2022-09-01T22:28:28.596Z,0.60
2022-09-01T22:33:25.635Z,0.85
2022-09-01T22:38:23.205Z,0.50
2022-09-01T22:43:19.821Z,0.43
2022-09-01T22:48:18.374Z,0.85
2022-09-01T22:53:16.635Z,0.40
2022-09-01T22:58:15.707Z,0.40
2022-09-01T23:03:12.191Z,0.68
2022-09-01T23:08:09.392Z,0.50
2022-09-01T23:13:06.290Z,0.63
2022-09-01T23:18:02.734Z,0.50
2022-09-01T23:22:59.133Z,0.60
2022-09-01T23:27:55.568Z,0.70
2022-09-01T23:32:51.950Z,0.52
2022-09-01T23:37:48.335Z,0.63
2022-09-01T23:42:45.395Z,0.60
2022-09-01T23:47:41.785Z,0.57
2022-09-01T23:52:38.170Z,0.70
2022-09-01T23:57:35.093Z,0.47
